Home > Products > Valid Products > TAF

000
FTUS43 KGID 210546
TAFGRI
TAF
KGRI 210546Z 2106/2206 19006KT P6SM SKC
     FM211600 18011KT P6SM SKC
     FM211800 17014G20KT P6SM SKC
     FM212300 15011KT P6SM SCT030=



000
FTUS43 KGID 210546
TAFGRI
TAF
KGRI 210546Z 2106/2206 19006KT P6SM SKC
     FM211600 18011KT P6SM SKC
     FM211800 17014G20KT P6SM SKC
     FM212300 15011KT P6SM SCT030=



000
FTUS43 KGID 202339
TAFGRI
TAF
KGRI 202339Z 2100/2124 VRB06KT P6SM SKC
     FM211600 17012KT P6SM SKC=



000
FTUS43 KGID 202339
TAFGRI
TAF
KGRI 202339Z 2100/2124 VRB06KT P6SM SKC
     FM211600 17012KT P6SM SKC=



000
FTUS43 KGID 201720
TAFGRI
TAF
KGRI 201720Z 2018/2118 VRB06KT P6SM SKC
     FM211600 17012KT P6SM SKC=



000
FTUS43 KGID 201720
TAFGRI
TAF
KGRI 201720Z 2018/2118 VRB06KT P6SM SKC
     FM211600 17012KT P6SM SKC=



000
FTUS43 KGID 201120
TAFGRI
TAF
KGRI 201120Z 2012/2112 VRB06KT P6SM SKC=



000
FTUS43 KGID 201120
TAFGRI
TAF
KGRI 201120Z 2012/2112 VRB06KT P6SM SKC=



000
FTUS43 KGID 200524
TAFGRI
TAF
KGRI 200524Z 2006/2106 VRB06KT P6SM SKC=



000
FTUS43 KGID 200524
TAFGRI
TAF
KGRI 200524Z 2006/2106 VRB06KT P6SM SKC=



000
FTUS43 KGID 200524
TAFGRI
TAF
KGRI 200524Z 2006/2106 VRB06KT P6SM SKC=



000
FTUS43 KGID 192325
TAFGRI
TAF
KGRI 192325Z 2000/2024 VRB06KT P6SM SKC=



000
FTUS43 KGID 192325
TAFGRI
TAF
KGRI 192325Z 2000/2024 VRB06KT P6SM SKC=



000
FTUS43 KGID 192325
TAFGRI
TAF
KGRI 192325Z 2000/2024 VRB06KT P6SM SKC=



000
FTUS43 KGID 192325
TAFGRI
TAF
KGRI 192325Z 2000/2024 VRB06KT P6SM SKC=



000
FTUS43 KGID 191722
TAFGRI
TAF
KGRI 191722Z 1918/2018 23014KT P6SM FEW250
     FM192200 VRB06KT P6SM SKC
     FM200700 32006KT P6SM SKC=



000
FTUS43 KGID 191722
TAFGRI
TAF
KGRI 191722Z 1918/2018 23014KT P6SM FEW250
     FM192200 VRB06KT P6SM SKC
     FM200700 32006KT P6SM SKC=



000
FTUS43 KGID 191120
TAFGRI
TAF
KGRI 191120Z 1912/2012 19010KT P6SM SKC
     FM191500 23014KT P6SM FEW150
     FM192200 VRB06KT P6SM SKC
     FM200700 32006KT P6SM SKC=



000
FTUS43 KGID 191120
TAFGRI
TAF
KGRI 191120Z 1912/2012 19010KT P6SM SKC
     FM191500 23014KT P6SM FEW150
     FM192200 VRB06KT P6SM SKC
     FM200700 32006KT P6SM SKC=



000
FTUS43 KGID 190535
TAFGRI
TAF
KGRI 190535Z 1906/2006 18010KT P6SM SKC
     FM191400 23012KT P6SM FEW150
     FM192200 VRB06KT P6SM SKC=



000
FTUS43 KGID 190535
TAFGRI
TAF
KGRI 190535Z 1906/2006 18010KT P6SM SKC
     FM191400 23012KT P6SM FEW150
     FM192200 VRB06KT P6SM SKC=



000
FTUS43 KGID 182330
TAFGRI
TAF
KGRI 182330Z 1900/1924 VRB06KT P6SM SKC
     FM191400 22012KT P6SM FEW150
     FM192000 VRB06KT P6SM FEW150=



000
FTUS43 KGID 182330
TAFGRI
TAF
KGRI 182330Z 1900/1924 VRB06KT P6SM SKC
     FM191400 22012KT P6SM FEW150
     FM192000 VRB06KT P6SM FEW150=



000
FTUS43 KGID 181720
TAFGRI
TAF
KGRI 181720Z 1818/1918 VRB06KT P6SM SCT012
     FM182100 16008KT P6SM SKC
     FM190800 20010KT P6SM SCT250=



000
FTUS43 KGID 181545 AAB
TAFGRI
TAF AMD
KGRI 181545Z 1816/1912 VRB06KT P6SM BKN006
     FM181800 17008KT P6SM FEW250=



000
FTUS43 KGID 181545 AAB
TAFGRI
TAF AMD
KGRI 181545Z 1816/1912 VRB06KT P6SM BKN006
     FM181800 17008KT P6SM FEW250=



000
FTUS43 KGID 181545 AAB
TAFGRI
TAF AMD
KGRI 181545Z 1816/1912 VRB06KT P6SM BKN006
     FM181800 17008KT P6SM FEW250=



000
FTUS43 KGID 181545 AAB
TAFGRI
TAF AMD
KGRI 181545Z 1816/1912 VRB06KT P6SM BKN006
     FM181800 17008KT P6SM FEW250=



000
FTUS43 KGID 181429 AAA
TAFGRI
TAF AMD
KGRI 181429Z 1814/1912 VRB06KT P6SM BKN007
     FM181600 VRB06KT P6SM SCT012
     FM181800 17008KT P6SM FEW250=



000
FTUS43 KGID 181429 AAA
TAFGRI
TAF AMD
KGRI 181429Z 1814/1912 VRB06KT P6SM BKN007
     FM181600 VRB06KT P6SM SCT012
     FM181800 17008KT P6SM FEW250=



000
FTUS43 KGID 181120
TAFGRI
TAF
KGRI 181120Z 1812/1912 VRB06KT P6SM SKC
     FM181800 17008KT P6SM FEW250=



000
FTUS43 KGID 181120
TAFGRI
TAF
KGRI 181120Z 1812/1912 VRB06KT P6SM SKC
     FM181800 17008KT P6SM FEW250=



000
FTUS43 KGID 181120
TAFGRI
TAF
KGRI 181120Z 1812/1912 VRB06KT P6SM SKC
     FM181800 17008KT P6SM FEW250=



000
FTUS43 KGID 181120
TAFGRI
TAF
KGRI 181120Z 1812/1912 VRB06KT P6SM SKC
     FM181800 17008KT P6SM FEW250=



    US Dept of Commerce
    National Oceanic and Atmospheric Administration
    National Weather Service
    1325 East West Highway
    Silver Spring, MD 20910
    Page Author: NWS Internet Services Team
Disclaimer
Information Quality
Credits
Glossary
Privacy Policy
Freedom of Information Act (FOIA)
About Us
Career Opportunities